Ride Results

Gold n Ironbark (21-05-2011)
Ride distance: 100.0 km Elevator

Outcomes - Gold n Ironbark (21-05-2011)
Division No. of Entries Retired / DNE Completed Withdrawn Ineligible V/O Percentage Completed
HW 11 3 4 1 - 3 63.64%
MW 18 7 5 - - 6 66.67%
LW 14 6 5 - - 3 78.57%
JN 6 2 1 - - 3 50.00%
Totals 49 18 15 1 - 15 67.35%
Results - Gold n Ironbark (21-05-2011)
No. Rider Horse Place Time Leg Speeds Total
Km/Hr
H/R bpm
Heavyweight
177 Vincent Comer JR 1 6:39:00 18.5, 15.4, 12.1 15.64 33, 52, 53, 60 (Avg:55)
135 Tamara Atkinson Ransom Bartholemew 2 (BC) 7:03:00 15.3, 14.2, 14.6 14.75 36, 41, 48, 42 (Avg:43)
762 Laurie Stevens Ellen Grove Shantelle 3 7:41:00 16.2, 13.7, 9.9 13.54 30, 37, 53, 54 (Avg:48)
4 Jennifer Green Clovelly Park Jonothan 4 9:39:00 13.1, 13.0, 6.3 10.78 36, 50, 52, 50 (Avg:50)
58 Dianne Tobin Granjen Ruben James Retired/DNE L2 6:52:00 12.7, 11.4 12.09 35, 42, 50 (Avg:46)
62 Leah Leishman Gragar Silver Salik Retired/DNE L2 7:48:00 11.6, 9.7 10.64 36, 47, 51 (Avg:49)
337 Allison Whitney Carnival Narbay Retired/DNE L2 8:24:00 10.8, 9.0 9.88 32, 42, 48 (Avg:45)
65 Carl Adamson Jasper Heart Rate L2 0:00:00 15.3, 12.7 - 29, 37, 65 (Avg:51)
82 Jarrod Robinson Faris Monarch Lame L2 0:00:00 11.8, 9.7 - 33, 45, 49 (Avg:47)
313 Dom Falcomer Dunele Lame L1 0:00:00 18.3 - 34, 51 (Avg:51)
313v Dom Falcomer Private Lady Withdrawn P/R 0:00:00 - - 42
Middleweight
42 Hans Peuker Marybank Celia 1 6:40:00 18.3, 15.4, 12.1 15.60 32, 46, 41, 49 (Avg:45)
798 Amanda Kettlewell Al Marah Cher Raid 2 (BC) 6:48:00 15.9, 13.0, 20.6 15.29 33, 42, 50, 50 (Avg:47)
766 Angelina Patterson Razorback Rimfire 3 7:03:00 13.3, 16.0, 15.5 14.75 37, 39, 42, 50 (Avg:43)
84 Kristie Taprell Kurrajong Concorde 4 7:42:00 13.1, 13.4, 14.4 13.51 30, 38, 43, 43 (Avg:41)
351 Steve Blackhurst Drumlin Moonfrost 5 9:39:00 11.6, 10.5, 9.8 10.78 30, 36, 46, 42 (Avg:41)
53 Beverley Rayner-Mason Ainslie Ribbon Retired/DNE L2 5:16:00 18.3, 13.7 15.76 36, 49, 58 (Avg:53)
796 Sharyn Coulston Khamseen Scout Retired/DNE L2 5:42:00 13.3, 16.0 14.56 32, 43, 48 (Avg:45)
799 Alamdar Dastani Oso Last Eclipse Retired/DNE L2 6:17:00 12.9, 13.5 13.21 39, 55, 50 (Avg:52)
775 Rachael Laidlaw Bushies Luthien Retired/DNE L2 6:45:00 12.7, 11.8 12.30 35, 40, 48 (Avg:44)
190 Tracey Stoneman Splitters Creek Angus Retired/DNE L2 7:31:00 11.6, 10.5 11.04 38, 44, 48 (Avg:46)
760 Naomi O'Shaughnessy Saraya Sun Elegance Retired/DNE L2 7:48:00 13.3, 8.8 10.64 37, 47, 59 (Avg:53)
77 Trish Reeves Musical Gully Techno Retired/DNE L2 8:24:00 10.8, 9.0 9.88 30, 36, 41 (Avg:38)
215 Kim Fitzpatrick Twin Peaks Kenny Karaoke Lame L2 0:00:00 16.3, 13.6 - 33, 50, 59 (Avg:54)
360 Kylie Hutcheon Go Get Em Jack Lame L2 0:00:00 14.9, 14.0 - 35, 52, 56 (Avg:54)
13 Linda Tanian Magic Glenn Oya Lame L2 0:00:00 13.1, 12.9 - 32, 40, 49 (Avg:44)
54 Rowena McLean Lynandra Park Trinity Heart Rate L1 0:00:00 11.6 - 34, 56 (Avg:56)
192 Tabitha Verspaandonk Macquarie Park Anellusion Lame L1 0:00:00 12.2 - 50, 49 (Avg:49)
797 Mark Walton Razorback Kipp Lame L1 0:00:00 11.8 - 40, 45 (Avg:45)
Lightweight
770 Jessica Aistrope Highland View Taz 1 6:38:00 18.3, 15.2, 12.6 15.68 39, 47, 52, 50 (Avg:49)
140 Michelle Munro Tiawarra Ramy 1 (BC) 6:38:00 18.3, 15.2, 12.6 15.68 28, 44, 48, 47 (Avg:46)
761 Louise Stevens Salz Bossy Boots 3 7:41:00 16.2, 13.7, 9.9 13.54 39, 39, 54, 46 (Avg:46)
11 Rohan Stanes Flying Circus Ring Master 4 8:27:00 13.1, 13.0, 9.9 12.31 32, 38, 43, 36 (Avg:39)
91 Kim Noble Menora Moon Dance 5 9:39:00 13.1, 12.6, 6.5 10.78 41, 48, 51, 53 (Avg:50)
223 Nicole Whitehead Kelkette Park Silver Earl Retired/DNE L2 6:33:00 12.4, 12.8 12.67 36, 45, 55 (Avg:50)
771 Madeleine Whyte Arinya Park Kla'saar Retired/DNE L2 6:33:00 12.4, 12.8 12.67 38, 43, 59 (Avg:51)
773 Rebecca Stoneman El Raz Naarkeeta Retired/DNE L2 7:31:00 11.6, 10.5 11.04 33, 38, 45 (Avg:41)
61 Lois Sharam Al Bahir Retired/DNE L2 7:41:00 11.8, 9.9 10.80 29, 36, 48 (Avg:42)
114 Helen Spencer Imoan Party Girl Retired/DNE L2 7:41:00 11.8, 9.9 10.80 32, 41, 37 (Avg:39)
218 Roslyn Trait Bella Retired/DNE L2 7:50:00 11.3, 9.9 10.60 32, 43, 47 (Avg:45)
772 Shelley Cowan Castlebar Tailwind Lame L2 0:00:00 14.7, 15.0 - 28, 40, 46 (Avg:43)
774 Lynne Henson Show No Fear Lame L2 0:00:00 13.4, 12.4 - 37, 52, 48 (Avg:50)
183 Nicky Robinson Sterling Nakeeta Lame L2 0:00:00 14.9, 13.3 - 37, 47, 47 (Avg:47)
Junior
90 Samantha Noble Springridge Bungendore 1 (BC) 8:27:00 13.1, 13.0, 9.9 12.31 32, 36, 39, 38 (Avg:37)
149 Jenny Berg Candynae Retired/DNE L2 5:47:00 15.9, 13.0 14.35 35, 44, 59 (Avg:51)
52 Nadine Harte Magic Glenn Galah Retired/DNE L2 6:22:00 13.1, 12.9 13.04 32, 40, 46 (Avg:43)
767 Lucy Mills Billie Lame L2 0:00:00 11.8, 9.9 - 37, 42, 54 (Avg:48)
148 Stevie-lyn Oborne LadyBlaze Lame L2 0:00:00 11.3, 9.9 - 35, 42, 53 (Avg:47)
195 Nikita Verspaandonk Moulin Rouge Heart Rate L2 0:00:00 12.2, 13.7 - 31, 45, 62 (Avg:53)